sensor_id;sensor_type;location;lat;lon;timestamp;pressure;altitude;pressure_sealevel;temperature;humidity
13478;BME280;12598;62.382;17.344;2022-12-18T00:00:16;101294.28;;;12.88;18.15
13478;BME280;12598;62.382;17.344;2022-12-18T00:01:22;101303.66;;;12.93;18.47
13478;BME280;12598;62.382;17.344;2022-12-18T00:02:24;101306.44;;;12.92;17.93
13478;BME280;12598;62.382;17.344;2022-12-18T00:03:26;101304.63;;;12.92;18.02
13478;BME280;12598;62.382;17.344;2022-12-18T00:04:28;101300.22;;;12.91;18.44
13478;BME280;12598;62.382;17.344;2022-12-18T00:05:30;101300.22;;;12.91;17.96
13478;BME280;12598;62.382;17.344;2022-12-18T00:06:32;101305.66;;;12.90;18.30
13478;BME280;12598;62.382;17.344;2022-12-18T00:07:35;101305.75;;;12.88;17.90
13478;BME280;12598;62.382;17.344;2022-12-18T00:08:37;101299.06;;;12.83;18.28
13478;BME280;12598;62.382;17.344;2022-12-18T00:09:40;101304.03;;;12.87;18.33
13478;BME280;12598;62.382;17.344;2022-12-18T00:10:41;101302.34;;;12.86;18.05
13478;BME280;12598;62.382;17.344;2022-12-18T00:11:43;101299.47;;;12.77;18.14
13478;BME280;12598;62.382;17.344;2022-12-18T00:12:45;101304.25;;;12.84;18.79
13478;BME280;12598;62.382;17.344;2022-12-18T00:13:47;101306.91;;;12.84;18.13
13478;BME280;12598;62.382;17.344;2022-12-18T00:14:49;101318.38;;;12.85;18.36
13478;BME280;12598;62.382;17.344;2022-12-18T00:15:51;101312.31;;;12.83;18.49
13478;BME280;12598;62.382;17.344;2022-12-18T00:16:57;101291.50;;;12.77;18.32
13478;BME280;12598;62.382;17.344;2022-12-18T00:18:02;101314.03;;;12.84;18.57
13478;BME280;12598;62.382;17.344;2022-12-18T00:19:04;101306.16;;;12.82;18.73
13478;BME280;12598;62.382;17.344;2022-12-18T00:20:06;101310.69;;;12.80;18.43
13478;BME280;12598;62.382;17.344;2022-12-18T00:21:10;101302.75;;;12.80;18.11
13478;BME280;12598;62.382;17.344;2022-12-18T00:22:12;101295.72;;;12.79;18.72
13478;BME280;12598;62.382;17.344;2022-12-18T00:23:17;101301.03;;;12.79;18.46
13478;BME280;12598;62.382;17.344;2022-12-18T00:24:19;101294.03;;;12.78;18.23
13478;BME280;12598;62.382;17.344;2022-12-18T00:25:21;101275.75;;;12.74;18.49
13478;BME280;12598;62.382;17.344;2022-12-18T00:26:25;101277.38;;;12.76;18.32
13478;BME280;12598;62.382;17.344;2022-12-18T00:27:31;101282.59;;;12.78;18.90
13478;BME280;12598;62.382;17.344;2022-12-18T00:28:33;101279.19;;;12.76;18.69
13478;BME280;12598;62.382;17.344;2022-12-18T00:29:35;101277.44;;;12.75;18.55
13478;BME280;12598;62.382;17.344;2022-12-18T00:30:40;101279.19;;;12.76;18.63
13478;BME280;12598;62.382;17.344;2022-12-18T00:31:42;101277.44;;;12.75;18.86
13478;BME280;12598;62.382;17.344;2022-12-18T00:32:44;101279.56;;;12.70;18.76
13478;BME280;12598;62.382;17.344;2022-12-18T00:33:47;101289.97;;;12.73;18.56
13478;BME280;12598;62.382;17.344;2022-12-18T00:34:54;101276.63;;;12.74;18.92
13478;BME280;12598;62.382;17.344;2022-12-18T00:36:03;101281.06;;;12.74;18.82
13478;BME280;12598;62.382;17.344;2022-12-18T00:37:06;101264.91;;;12.64;18.56
13478;BME280;12598;62.382;17.344;2022-12-18T00:38:08;101272.66;;;12.67;18.30
13478;BME280;12598;62.382;17.344;2022-12-18T00:39:10;101274.66;;;12.64;18.74
13478;BME280;12598;62.382;17.344;2022-12-18T00:40:12;101269.34;;;12.64;18.61
13478;BME280;12598;62.382;17.344;2022-12-18T00:41:16;101289.22;;;12.71;18.34
13478;BME280;12598;62.382;17.344;2022-12-18T00:42:38;101279.19;;;12.76;18.32
13478;BME280;12598;62.382;17.344;2022-12-18T00:43:58;101268.94;;;12.70;18.60
13478;BME280;12598;62.382;17.344;2022-12-18T00:45:00;101283.63;;;12.75;18.32
13478;BME280;12598;62.382;17.344;2022-12-18T00:46:02;101275.00;;;12.72;18.38
13478;BME280;12598;62.382;17.344;2022-12-18T00:47:05;101283.09;;;12.70;19.06
13478;BME280;12598;62.382;17.344;2022-12-18T00:48:07;101269.47;;;12.62;18.75
13478;BME280;12598;62.382;17.344;2022-12-18T00:49:09;101268.41;;;12.65;19.08
13478;BME280;12598;62.382;17.344;2022-12-18T00:50:14;101266.91;;;12.61;18.68
13478;BME280;12598;62.382;17.344;2022-12-18T00:51:16;101279.75;;;12.67;18.76
13478;BME280;12598;62.382;17.344;2022-12-18T00:52:18;101267.84;;;12.60;18.85
13478;BME280;12598;62.382;17.344;2022-12-18T00:53:20;101272.75;;;12.66;18.94
13478;BME280;12598;62.382;17.344;2022-12-18T00:54:22;101260.66;;;12.62;19.01
13478;BME280;12598;62.382;17.344;2022-12-18T00:55:24;101264.81;;;12.66;18.62
13478;BME280;12598;62.382;17.344;2022-12-18T00:56:26;101264.91;;;12.64;18.64
13478;BME280;12598;62.382;17.344;2022-12-18T00:57:28;101232.69;;;12.44;18.94
13478;BME280;12598;62.382;17.344;2022-12-18T00:58:30;101271.06;;;12.65;18.96
13478;BME280;12598;62.382;17.344;2022-12-18T00:59:38;101260.44;;;12.65;19.14
13478;BME280;12598;62.382;17.344;2022-12-18T01:00:40;101259.63;;;12.64;18.58
13478;BME280;12598;62.382;17.344;2022-12-18T01:01:46;101266.63;;;12.65;19.18
13478;BME280;12598;62.382;17.344;2022-12-18T01:02:48;101261.31;;;12.65;19.27
13478;BME280;12598;62.382;17.344;2022-12-18T01:03:51;101238.34;;;12.52;19.13
13478;BME280;12598;62.382;17.344;2022-12-18T01:04:54;101258.75;;;12.64;18.85
13478;BME280;12598;62.382;17.344;2022-12-18T01:05:56;101261.41;;;12.64;19.03
13478;BME280;12598;62.382;17.344;2022-12-18T01:06:58;101269.34;;;12.64;18.67
13478;BME280;12598;62.382;17.344;2022-12-18T01:08:01;101273.81;;;12.63;18.80
13478;BME280;12598;62.382;17.344;2022-12-18T01:09:03;101266.81;;;12.62;19.34
13478;BME280;12598;62.382;17.344;2022-12-18T01:10:07;101271.25;;;12.62;19.10
13478;BME280;12598;62.382;17.344;2022-12-18T01:11:16;101266.81;;;12.62;18.89
13478;BME280;12598;62.382;17.344;2022-12-18T01:12:18;101262.34;;;12.63;18.84
13478;BME280;12598;62.382;17.344;2022-12-18T01:13:20;101266.81;;;12.62;18.83
13478;BME280;12598;62.382;17.344;2022-12-18T01:14:24;101265.13;;;12.61;19.18
13478;BME280;12598;62.382;17.344;2022-12-18T01:15:27;101272.97;;;12.63;19.18
13478;BME280;12598;62.382;17.344;2022-12-18T01:16:28;101270.44;;;12.61;19.24
13478;BME280;12598;62.382;17.344;2022-12-18T01:17:30;101268.59;;;12.62;19.19
13478;BME280;12598;62.382;17.344;2022-12-18T01:18:35;101268.59;;;12.62;18.90
13478;BME280;12598;62.382;17.344;2022-12-18T01:19:37;101265.13;;;12.61;19.07
13478;BME280;12598;62.382;17.344;2022-12-18T01:20:38;101261.59;;;12.61;19.06
13478;BME280;12598;62.382;17.344;2022-12-18T01:21:40;101264.25;;;12.61;19.15
13478;BME280;12598;62.382;17.344;2022-12-18T01:22:42;101214.75;;;12.35;19.00
13478;BME280;12598;62.382;17.344;2022-12-18T01:23:44;101270.44;;;12.61;18.90
13478;BME280;12598;62.382;17.344;2022-12-18T01:24:46;101256.28;;;12.61;19.54
13478;BME280;12598;62.382;17.344;2022-12-18T01:25:48;101258.94;;;12.61;19.00
13478;BME280;12598;62.382;17.344;2022-12-18T01:26:50;101258.94;;;12.61;19.34
13478;BME280;12598;62.382;17.344;2022-12-18T01:27:52;101263.41;;;12.60;19.23
13478;BME280;12598;62.382;17.344;2022-12-18T01:28:57;101263.41;;;12.60;19.42
13478;BME280;12598;62.382;17.344;2022-12-18T01:29:59;101264.25;;;12.61;19.36
13478;BME280;12598;62.382;17.344;2022-12-18T01:31:17;101256.97;;;12.64;19.14
13478;BME280;12598;62.382;17.344;2022-12-18T01:32:20;101255.16;;;12.65;19.20
13478;BME280;12598;62.382;17.344;2022-12-18T01:33:24;101250.03;;;12.62;19.41
13478;BME280;12598;62.382;17.344;2022-12-18T01:34:26;101254.50;;;12.61;19.13
13478;BME280;12598;62.382;17.344;2022-12-18T01:35:27;101255.34;;;12.62;19.72
13478;BME280;12598;62.382;17.344;2022-12-18T01:36:35;101251.94;;;12.60;19.30
13478;BME280;12598;62.382;17.344;2022-12-18T01:37:37;101251.00;;;12.61;19.20
13478;BME280;12598;62.382;17.344;2022-12-18T01:38:39;101252.81;;;12.60;19.28
13478;BME280;12598;62.382;17.344;2022-12-18T01:39:41;101258.94;;;12.61;19.46
13478;BME280;12598;62.382;17.344;2022-12-18T01:40:43;101256.41;;;12.59;19.15
13478;BME280;12598;62.382;17.344;2022-12-18T01:41:46;101256.50;;;12.58;19.49
13478;BME280;12598;62.382;17.344;2022-12-18T01:43:08;101265.88;;;12.63;19.49
13478;BME280;12598;62.382;17.344;2022-12-18T01:46:06;101251.03;;;12.73;18.94
13478;BME280;12598;62.382;17.344;2022-12-18T01:47:08;101253.03;;;12.70;19.14
13478;BME280;12598;62.382;17.344;2022-12-18T01:48:10;101253.22;;;12.67;19.79
13478;BME280;12598;62.382;17.344;2022-12-18T01:49:12;101254.41;;;12.63;19.92
13478;BME280;12598;62.382;17.344;2022-12-18T01:50:39;101249.22;;;12.61;19.87
13478;BME280;12598;62.382;17.344;2022-12-18T01:51:40;101249.63;;;12.68;19.44
13478;BME280;12598;62.382;17.344;2022-12-18T01:52:45;101253.44;;;12.64;19.20
13478;BME280;12598;62.382;17.344;2022-12-18T01:53:48;101249.94;;;12.63;19.65
13478;BME280;12598;62.382;17.344;2022-12-18T01:54:51;101249.09;;;12.63;19.67
13478;BME280;12598;62.382;17.344;2022-12-18T01:55:56;101246.56;;;12.61;20.02
13478;BME280;12598;62.382;17.344;2022-12-18T01:56:59;101239.84;;;12.56;19.68
13478;BME280;12598;62.382;17.344;2022-12-18T01:58:02;101242.19;;;12.60;19.37
13478;BME280;12598;62.382;17.344;2022-12-18T01:59:08;101237.72;;;12.61;19.38
13478;BME280;12598;62.382;17.344;2022-12-18T02:00:15;101232.44;;;12.61;19.67
13478;BME280;12598;62.382;17.344;2022-12-18T02:01:20;101237.63;;;12.62;19.61
13478;BME280;12598;62.382;17.344;2022-12-18T02:02:23;101227.03;;;12.62;19.24
13478;BME280;12598;62.382;17.344;2022-12-18T02:03:26;101234.13;;;12.62;19.45
13478;BME280;12598;62.382;17.344;2022-12-18T02:04:28;101226.28;;;12.60;19.51
13478;BME280;12598;62.382;17.344;2022-12-18T02:06:40;101223.72;;;12.59;19.89
13478;BME280;12598;62.382;17.344;2022-12-18T02:08:25;101227.03;;;12.62;19.54
13478;BME280;12598;62.382;17.344;2022-12-18T02:09:25;101227.47;;;12.69;19.87
13478;BME280;12598;62.382;17.344;2022-12-18T02:10:40;101223.09;;;12.68;19.15
13478;BME280;12598;62.382;17.344;2022-12-18T02:11:54;101219.69;;;12.66;19.26
13478;BME280;12598;62.382;17.344;2022-12-18T02:13:11;101231.94;;;12.68;19.32
13478;BME280;12598;62.382;17.344;2022-12-18T02:15:46;101228.31;;;12.69;19.44
13478;BME280;12598;62.382;17.344;2022-12-18T02:17:02;101227.56;;;12.67;19.32
13478;BME280;12598;62.382;17.344;2022-12-18T02:18:19;101216.09;;;12.67;19.95
13478;BME280;12598;62.382;17.344;2022-12-18T02:21:25;101216.56;;;12.73;19.26
13478;BME280;12598;62.382;17.344;2022-12-18T02:23:56;101189.03;;;12.62;19.86
13478;BME280;12598;62.382;17.344;2022-12-18T02:26:19;101200.19;;;12.67;19.99
13478;BME280;12598;62.382;17.344;2022-12-18T02:27:25;101200.31;;;12.65;20.01
13478;BME280;12598;62.382;17.344;2022-12-18T02:28:32;101201.34;;;12.63;19.59
13478;BME280;12598;62.382;17.344;2022-12-18T02:29:48;101195.09;;;12.64;19.65
13478;BME280;12598;62.382;17.344;2022-12-18T02:31:01;101202.09;;;12.65;19.85
13478;BME280;12598;62.382;17.344;2022-12-18T02:32:10;101195.94;;;12.64;19.50
13478;BME280;12598;62.382;17.344;2022-12-18T02:33:14;101205.81;;;12.62;19.53
13478;BME280;12598;62.382;17.344;2022-12-18T02:34:19;101163.00;;;12.42;19.85
13478;BME280;12598;62.382;17.344;2022-12-18T02:35:28;101183.72;;;12.62;19.78
13478;BME280;12598;62.382;17.344;2022-12-18T02:36:36;101182.78;;;12.63;20.22
13478;BME280;12598;62.382;17.344;2022-12-18T02:37:42;101165.56;;;12.56;19.65
13478;BME280;12598;62.382;17.344;2022-12-18T02:38:46;101178.41;;;12.62;20.19
13478;BME280;12598;62.382;17.344;2022-12-18T02:39:51;101177.59;;;12.61;20.32
13478;BME280;12598;62.382;17.344;2022-12-18T02:40:55;101182.78;;;12.63;20.17
13478;BME280;12598;62.382;17.344;2022-12-18T02:41:59;101176.72;;;12.61;20.25
13478;BME280;12598;62.382;17.344;2022-12-18T02:43:11;101183.72;;;12.62;19.89
13478;BME280;12598;62.382;17.344;2022-12-18T02:44:14;101181.81;;;12.64;19.84
13478;BME280;12598;62.382;17.344;2022-12-18T02:45:17;101176.94;;;12.58;19.78
13478;BME280;12598;62.382;17.344;2022-12-18T02:46:27;101174.06;;;12.61;19.81
13478;BME280;12598;62.382;17.344;2022-12-18T02:47:34;101174.72;;;12.64;19.55
13478;BME280;12598;62.382;17.344;2022-12-18T02:48:39;101180.88;;;12.65;20.23
13478;BME280;12598;62.382;17.344;2022-12-18T02:51:22;101164.66;;;12.69;19.56
13478;BME280;12598;62.382;17.344;2022-12-18T02:52:41;101166.22;;;12.72;19.85
13478;BME280;12598;62.382;17.344;2022-12-18T02:53:55;101160.94;;;12.72;19.56
13478;BME280;12598;62.382;17.344;2022-12-18T02:55:16;101162.00;;;12.69;19.69
13478;BME280;12598;62.382;17.344;2022-12-18T02:56:44;101159.97;;;12.73;19.67
13478;BME280;12598;62.382;17.344;2022-12-18T02:59:17;101154.66;;;12.73;20.21
13478;BME280;12598;62.382;17.344;2022-12-18T03:00:33;101147.13;;;12.67;19.76
13478;BME280;12598;62.382;17.344;2022-12-18T03:01:55;101149.34;;;12.73;20.22
13478;BME280;12598;62.382;17.344;2022-12-18T03:04:18;101155.63;;;12.72;20.20
13478;BME280;12598;62.382;17.344;2022-12-18T03:05:28;101150.53;;;12.69;20.23
13478;BME280;12598;62.382;17.344;2022-12-18T03:06:38;101153.19;;;12.69;20.45
13478;BME280;12598;62.382;17.344;2022-12-18T03:07:50;101139.50;;;12.62;20.01
13478;BME280;12598;62.382;17.344;2022-12-18T03:09:02;101145.97;;;12.71;19.74
13478;BME280;12598;62.382;17.344;2022-12-18T03:10:13;101145.22;;;12.69;19.58
13478;BME280;12598;62.382;17.344;2022-12-18T03:11:16;101147.88;;;12.69;20.04
13478;BME280;12598;62.382;17.344;2022-12-18T03:12:47;101142.34;;;12.72;20.32
13478;BME280;12598;62.382;17.344;2022-12-18T03:13:54;101109.78;;;12.57;20.11
13478;BME280;12598;62.382;17.344;2022-12-18T03:15:10;101128.13;;;12.73;20.24
13478;BME280;12598;62.382;17.344;2022-12-18T03:16:28;101136.09;;;12.73;20.42
13478;BME280;12598;62.382;17.344;2022-12-18T03:17:32;101131.94;;;12.69;19.92
13478;BME280;12598;62.382;17.344;2022-12-18T03:19:40;101132.91;;;12.68;20.35
13478;BME280;12598;62.382;17.344;2022-12-18T03:20:44;101133.03;;;12.66;19.66
13478;BME280;12598;62.382;17.344;2022-12-18T03:21:55;101138.22;;;12.68;20.08
13478;BME280;12598;62.382;17.344;2022-12-18T03:23:09;101139.28;;;12.65;20.17
13478;BME280;12598;62.382;17.344;2022-12-18T03:24:14;101133.78;;;12.68;20.39
13478;BME280;12598;62.382;17.344;2022-12-18T03:25:18;101137.25;;;12.69;19.84
13478;BME280;12598;62.382;17.344;2022-12-18T03:26:24;101140.13;;;12.66;19.86
13478;BME280;12598;62.382;17.344;2022-12-18T03:27:33;101131.53;;;12.62;20.03
13478;BME280;12598;62.382;17.344;2022-12-18T03:28:48;101119.09;;;12.63;20.50
13478;BME280;12598;62.382;17.344;2022-12-18T03:30:10;101118.69;;;12.69;20.24
13478;BME280;12598;62.382;17.344;2022-12-18T03:31:14;101118.47;;;12.72;20.07
13478;BME280;12598;62.382;17.344;2022-12-18T03:32:27;101125.69;;;12.70;20.22
13478;BME280;12598;62.382;17.344;2022-12-18T03:33:43;101095.56;;;12.58;20.03
13478;BME280;12598;62.382;17.344;2022-12-18T03:34:50;101129.09;;;12.72;20.08
13478;BME280;12598;62.382;17.344;2022-12-18T03:35:56;101121.13;;;12.72;20.24
13478;BME280;12598;62.382;17.344;2022-12-18T03:36:58;101117.00;;;12.68;20.62
13478;BME280;12598;62.382;17.344;2022-12-18T03:38:06;101122.28;;;12.68;20.38
13478;BME280;12598;62.382;17.344;2022-12-18T03:39:10;101111.38;;;12.60;20.38
13478;BME280;12598;62.382;17.344;2022-12-18T03:40:13;101123.16;;;12.68;19.94
13478;BME280;12598;62.382;17.344;2022-12-18T03:42:49;101111.47;;;12.71;20.03
13478;BME280;12598;62.382;17.344;2022-12-18T03:46:52;101106.72;;;12.76;20.19
13478;BME280;12598;62.382;17.344;2022-12-18T03:48:28;101087.50;;;12.85;20.15
13478;BME280;12598;62.382;17.344;2022-12-18T03:49:40;101083.78;;;12.75;20.21
13478;BME280;12598;62.382;17.344;2022-12-18T03:51:03;101092.16;;;12.81;20.56
13478;BME280;12598;62.382;17.344;2022-12-18T03:52:18;101084.44;;;12.78;19.95
13478;BME280;12598;62.382;17.344;2022-12-18T03:53:25;101086.25;;;12.78;20.24
13478;BME280;12598;62.382;17.344;2022-12-18T03:54:34;101084.56;;;12.77;20.65
13478;BME280;12598;62.382;17.344;2022-12-18T03:55:47;101082.06;;;12.74;20.13
13478;BME280;12598;62.382;17.344;2022-12-18T03:56:57;101076.78;;;12.74;20.41
13478;BME280;12598;62.382;17.344;2022-12-18T03:58:01;101077.72;;;12.73;20.17
13478;BME280;12598;62.382;17.344;2022-12-18T03:59:16;101070.50;;;12.75;20.46
13478;BME280;12598;62.382;17.344;2022-12-18T04:00:19;101070.19;;;12.67;20.32
13478;BME280;12598;62.382;17.344;2022-12-18T04:01:39;101083.78;;;12.75;20.10
13478;BME280;12598;62.382;17.344;2022-12-18T04:02:48;101080.28;;;12.74;20.49
13478;BME280;12598;62.382;17.344;2022-12-18T04:03:59;101077.00;;;12.71;20.43
13478;BME280;12598;62.382;17.344;2022-12-18T04:05:06;101075.94;;;12.73;20.76
13478;BME280;12598;62.382;17.344;2022-12-18T04:06:13;101082.94;;;12.74;20.68
13478;BME280;12598;62.382;17.344;2022-12-18T04:07:18;101082.06;;;12.74;20.09
13478;BME280;12598;62.382;17.344;2022-12-18T04:08:21;101074.34;;;12.71;20.56
13478;BME280;12598;62.382;17.344;2022-12-18T04:09:34;101075.81;;;12.75;20.70
13478;BME280;12598;62.382;17.344;2022-12-18T04:10:38;101076.78;;;12.74;20.42
13478;BME280;12598;62.382;17.344;2022-12-18T04:11:41;101077.94;;;12.70;20.53
13478;BME280;12598;62.382;17.344;2022-12-18T04:12:47;101068.94;;;12.72;20.66
13478;BME280;12598;62.382;17.344;2022-12-18T04:13:50;101063.94;;;12.68;20.45
13478;BME280;12598;62.382;17.344;2022-12-18T04:14:56;101062.69;;;12.73;20.28
13478;BME280;12598;62.382;17.344;2022-12-18T04:15:58;101064.47;;;12.73;20.48
13478;BME280;12598;62.382;17.344;2022-12-18T04:17:02;101065.41;;;12.72;20.52
13478;BME280;12598;62.382;17.344;2022-12-18T04:18:07;101066.28;;;12.72;20.56
13478;BME280;12598;62.382;17.344;2022-12-18T04:19:13;101053.97;;;12.71;20.60
13478;BME280;12598;62.382;17.344;2022-12-18T04:20:18;101068.81;;;12.74;21.09
13478;BME280;12598;62.382;17.344;2022-12-18T04:21:20;101063.50;;;12.74;20.89
13478;BME280;12598;62.382;17.344;2022-12-18T04:22:24;101066.16;;;12.74;20.66
13478;BME280;12598;62.382;17.344;2022-12-18T04:23:31;101059.06;;;12.74;20.93
13478;BME280;12598;62.382;17.344;2022-12-18T04:24:33;101062.56;;;12.75;20.58
13478;BME280;12598;62.382;17.344;2022-12-18T04:25:46;101065.97;;;12.77;20.95
13478;BME280;12598;62.382;17.344;2022-12-18T04:26:54;101065.03;;;12.78;20.95
13478;BME280;12598;62.382;17.344;2022-12-18T04:28:00;101052.91;;;12.74;20.64
13478;BME280;12598;62.382;17.344;2022-12-18T04:29:02;101051.84;;;12.76;20.66
13478;BME280;12598;62.382;17.344;2022-12-18T04:30:05;101051.84;;;12.76;21.02
13478;BME280;12598;62.382;17.344;2022-12-18T04:31:07;101038.78;;;12.73;20.73
13478;BME280;12598;62.382;17.344;2022-12-18T04:32:09;101024.16;;;12.68;20.52
13478;BME280;12598;62.382;17.344;2022-12-18T04:33:13;101036.03;;;12.75;20.97
13478;BME280;12598;62.382;17.344;2022-12-18T04:34:20;101029.00;;;12.74;20.94
13478;BME280;12598;62.382;17.344;2022-12-18T04:35:26;101037.63;;;12.77;21.13
13478;BME280;12598;62.382;17.344;2022-12-18T04:36:28;101040.41;;;12.76;21.03
13478;BME280;12598;62.382;17.344;2022-12-18T04:37:30;101031.50;;;12.77;21.25
13478;BME280;12598;62.382;17.344;2022-12-18T04:38:33;101029.00;;;12.74;20.91
13478;BME280;12598;62.382;17.344;2022-12-18T04:39:41;101034.88;;;12.79;21.21
13478;BME280;12598;62.382;17.344;2022-12-18T04:40:52;101035.72;;;12.79;20.72
13478;BME280;12598;62.382;17.344;2022-12-18T04:41:59;101032.22;;;12.79;20.54
13478;BME280;12598;62.382;17.344;2022-12-18T04:43:01;101037.41;;;12.80;20.98
13478;BME280;12598;62.382;17.344;2022-12-18T04:44:04;101033.19;;;12.78;20.57
13478;BME280;12598;62.382;17.344;2022-12-18T04:45:06;101036.66;;;12.78;21.13
13478;BME280;12598;62.382;17.344;2022-12-18T04:46:09;101027.97;;;12.76;21.01
13478;BME280;12598;62.382;17.344;2022-12-18T04:47:11;101024.28;;;12.79;21.19
13478;BME280;12598;62.382;17.344;2022-12-18T04:48:13;101023.41;;;12.78;20.85
13478;BME280;12598;62.382;17.344;2022-12-18T04:49:14;101027.75;;;12.79;21.03
13478;BME280;12598;62.382;17.344;2022-12-18T04:50:16;101017.13;;;12.79;20.98
13478;BME280;12598;62.382;17.344;2022-12-18T04:51:19;101016.31;;;12.79;21.05
13478;BME280;12598;62.382;17.344;2022-12-18T04:52:27;101018.75;;;12.82;20.73
13478;BME280;12598;62.382;17.344;2022-12-18T04:53:32;101019.56;;;12.82;21.21
13478;BME280;12598;62.382;17.344;2022-12-18T04:54:34;101022.22;;;12.82;21.32
13478;BME280;12598;62.382;17.344;2022-12-18T04:55:36;100966.44;;;12.59;20.72
13478;BME280;12598;62.382;17.344;2022-12-18T04:56:39;101006.44;;;12.81;21.19
13478;BME280;12598;62.382;17.344;2022-12-18T04:57:41;101006.44;;;12.81;21.02
13478;BME280;12598;62.382;17.344;2022-12-18T04:58:44;101001.13;;;12.81;21.49
13478;BME280;12598;62.382;17.344;2022-12-18T04:59:46;100985.63;;;12.75;20.96
13478;BME280;12598;62.382;17.344;2022-12-18T05:00:48;100992.22;;;12.82;21.03
13478;BME280;12598;62.382;17.344;2022-12-18T05:01:49;100987.88;;;12.81;21.46
13478;BME280;12598;62.382;17.344;2022-12-18T05:02:51;100985.09;;;12.82;21.35
13478;BME280;12598;62.382;17.344;2022-12-18T05:03:53;100979.78;;;12.82;20.92
13478;BME280;12598;62.382;17.344;2022-12-18T05:04:55;100961.00;;;12.73;21.30
13478;BME280;12598;62.382;17.344;2022-12-18T05:05:57;100964.38;;;12.75;21.23
13478;BME280;12598;62.382;17.344;2022-12-18T05:06:59;100979.03;;;12.80;21.31
13478;BME280;12598;62.382;17.344;2022-12-18T05:08:01;100980.63;;;12.83;21.46
13478;BME280;12598;62.382;17.344;2022-12-18T05:09:03;100991.13;;;12.84;21.55
13478;BME280;12598;62.382;17.344;2022-12-18T05:10:06;100976.06;;;12.85;21.20
13478;BME280;12598;62.382;17.344;2022-12-18T05:11:13;100966.13;;;12.76;20.83
13478;BME280;12598;62.382;17.344;2022-12-18T05:12:17;100974.16;;;12.87;21.24
13478;BME280;12598;62.382;17.344;2022-12-18T05:13:19;100977.75;;;12.86;21.30
13478;BME280;12598;62.382;17.344;2022-12-18T05:14:21;100975.94;;;12.86;21.51
13478;BME280;12598;62.382;17.344;2022-12-18T05:15:22;100971.59;;;12.85;20.95
13478;BME280;12598;62.382;17.344;2022-12-18T05:16:24;100967.59;;;12.80;21.22
13478;BME280;12598;62.382;17.344;2022-12-18T05:17:26;100975.00;;;12.87;20.94
13478;BME280;12598;62.382;17.344;2022-12-18T05:18:28;100975.00;;;12.87;21.31
13478;BME280;12598;62.382;17.344;2022-12-18T05:19:30;100974.16;;;12.87;21.26
13478;BME280;12598;62.382;17.344;2022-12-18T05:20:32;100972.34;;;12.87;21.38
13478;BME280;12598;62.382;17.344;2022-12-18T05:21:34;100962.06;;;12.83;21.17
13478;BME280;12598;62.382;17.344;2022-12-18T05:22:36;100971.38;;;12.88;20.98
13478;BME280;12598;62.382;17.344;2022-12-18T05:23:38;100955.28;;;12.79;21.00
13478;BME280;12598;62.382;17.344;2022-12-18T05:24:40;100961.09;;;12.84;21.40
13478;BME280;12598;62.382;17.344;2022-12-18T05:25:42;100974.03;;;12.88;21.68
13478;BME280;12598;62.382;17.344;2022-12-18T05:26:50;100970.31;;;12.91;21.35
13478;BME280;12598;62.382;17.344;2022-12-18T05:27:52;100970.31;;;12.91;21.42
13478;BME280;12598;62.382;17.344;2022-12-18T05:28:54;100974.75;;;12.90;21.06
13478;BME280;12598;62.382;17.344;2022-12-18T05:29:56;100966.19;;;12.87;21.52
13478;BME280;12598;62.382;17.344;2022-12-18T05:31:00;100976.47;;;12.91;21.57
13478;BME280;12598;62.382;17.344;2022-12-18T05:32:02;100979.88;;;12.93;21.20
13478;BME280;12598;62.382;17.344;2022-12-18T05:33:04;100981.56;;;12.94;21.41
13478;BME280;12598;62.382;17.344;2022-12-18T05:34:06;100974.56;;;12.93;21.56
13478;BME280;12598;62.382;17.344;2022-12-18T05:35:09;100971.94;;;12.93;21.42
13478;BME280;12598;62.382;17.344;2022-12-18T05:36:12;100972.78;;;12.94;21.57
13478;BME280;12598;62.382;17.344;2022-12-18T05:37:14;100982.44;;;12.95;21.57
13478;BME280;12598;62.382;17.344;2022-12-18T05:38:15;100979.78;;;12.95;21.77
13478;BME280;12598;62.382;17.344;2022-12-18T05:39:17;100983.41;;;12.94;21.83
13478;BME280;12598;62.382;17.344;2022-12-18T05:40:19;100962.47;;;12.89;21.53
13478;BME280;12598;62.382;17.344;2022-12-18T05:41:21;100966.75;;;12.92;21.21
13478;BME280;12598;62.382;17.344;2022-12-18T05:42:23;100971.69;;;12.96;21.80
13478;BME280;12598;62.382;17.344;2022-12-18T05:43:26;100964.09;;;12.92;21.52
13478;BME280;12598;62.382;17.344;2022-12-18T05:44:28;100975.22;;;12.97;21.85
13478;BME280;12598;62.382;17.344;2022-12-18T05:45:30;100968.94;;;12.98;21.63
13478;BME280;12598;62.382;17.344;2022-12-18T05:46:32;100969.91;;;12.97;21.66
13478;BME280;12598;62.382;17.344;2022-12-18T05:47:34;100967.16;;;12.98;21.98
13478;BME280;12598;62.382;17.344;2022-12-18T05:48:36;100967.16;;;12.98;21.30
13478;BME280;12598;62.382;17.344;2022-12-18T05:49:38;100966.19;;;12.99;21.67
13478;BME280;12598;62.382;17.344;2022-12-18T05:50:41;100963.56;;;12.99;22.03
13478;BME280;12598;62.382;17.344;2022-12-18T05:51:44;100973.22;;;13.00;21.44
13478;BME280;12598;62.382;17.344;2022-12-18T05:52:46;100955.91;;;12.95;21.49
13478;BME280;12598;62.382;17.344;2022-12-18T05:53:48;100974.91;;;13.01;21.65
13478;BME280;12598;62.382;17.344;2022-12-18T05:54:50;100964.38;;;13.00;21.81
13478;BME280;12598;62.382;17.344;2022-12-18T05:55:52;100967.78;;;13.02;21.12
13478;BME280;12598;62.382;17.344;2022-12-18T05:56:54;100964.38;;;13.00;21.60